Time;durP1;ratioP1;P1;durP2;ratioP2;P2;SDS_P1;SDS_P2;PMS_P1;PMS_P2;Temp;Humidity;BMP_temperature;BMP_pressure;BME280_temperature;BME280_humidity;BME280_pressure;Samples;Min_cycle;Max_cycle;Signal;HPM_P1;HPM_P2
2020/12/19 00:00:53;;;;;;;3.20;2.45;;;1.30;99.90;;;;;;2073699;28;20752;-59
2020/12/19 00:01:54;;;;;;;3.20;2.40;;;1.30;99.90;;;;;;2073932;28;20185;-59
2020/12/19 00:02:55;;;;;;;2.87;2.30;;;1.30;99.90;;;;;;2072658;28;20685;-59
2020/12/19 00:03:56;;;;;;;4.00;2.83;;;1.30;99.90;;;;;;2073522;28;20194;-58
2020/12/19 00:04:56;;;;;;;3.77;2.57;;;1.30;99.90;;;;;;2073865;28;20182;-58
2020/12/19 00:05:57;;;;;;;3.70;2.80;;;1.30;99.90;;;;;;2073770;28;20240;-58
2020/12/19 00:06:58;;;;;;;3.93;2.77;;;1.30;99.90;;;;;;2073841;28;20190;-58
2020/12/19 00:07:58;;;;;;;3.20;2.47;;;1.20;99.90;;;;;;2073304;28;20217;-58
2020/12/19 00:08:59;;;;;;;4.43;2.70;;;1.20;99.90;;;;;;2073892;28;20645;-60
2020/12/19 00:10:01;;;;;;;3.75;2.58;;;1.20;99.90;;;;;;2073703;28;20186;-61
2020/12/19 00:11:02;;;;;;;4.35;3.00;;;1.20;99.90;;;;;;2073506;28;20193;-59
2020/12/19 00:12:04;;;;;;;3.50;2.80;;;1.20;99.90;;;;;;2073982;28;20184;-58
2020/12/19 00:13:05;;;;;;;4.25;3.15;;;1.30;99.90;;;;;;2073797;28;20188;-62
2020/12/19 00:14:05;;;;;;;4.70;2.87;;;1.30;99.90;;;;;;2073585;28;20232;-59
2020/12/19 00:15:06;;;;;;;4.80;3.20;;;1.20;99.90;;;;;;2073874;28;20645;-59
2020/12/19 00:16:08;;;;;;;2.80;2.33;;;1.20;99.90;;;;;;2073807;28;20173;-59
2020/12/19 00:17:08;;;;;;;3.60;2.83;;;1.20;99.90;;;;;;2073827;28;20188;-61
2020/12/19 00:18:09;;;;;;;3.93;2.67;;;1.20;99.90;;;;;;2073623;28;20224;-60
2020/12/19 00:19:10;;;;;;;4.53;3.30;;;1.20;99.90;;;;;;2073857;28;20184;-55
2020/12/19 00:20:12;;;;;;;4.00;2.80;;;1.20;99.90;;;;;;2073550;28;20185;-59
2020/12/19 00:21:12;;;;;;;4.85;2.92;;;1.20;99.90;;;;;;2073607;28;20192;-59
2020/12/19 00:22:13;;;;;;;4.10;2.67;;;1.20;99.90;;;;;;2072644;28;20221;-61
2020/12/19 00:23:14;;;;;;;4.20;2.83;;;1.20;99.90;;;;;;2073795;28;20189;-60
2020/12/19 00:24:14;;;;;;;4.70;2.80;;;1.20;99.90;;;;;;2073823;28;20203;-59
2020/12/19 00:25:15;;;;;;;4.73;3.43;;;1.20;99.90;;;;;;2073905;28;20687;-63
2020/12/19 00:26:16;;;;;;;5.50;3.10;;;1.20;99.90;;;;;;2073186;28;20189;-63
2020/12/19 00:27:16;;;;;;;3.93;3.33;;;1.30;99.90;;;;;;2073377;28;20188;-63
2020/12/19 00:28:17;;;;;;;4.63;3.10;;;1.30;99.90;;;;;;2073660;28;20290;-63
2020/12/19 00:29:18;;;;;;;4.03;2.90;;;1.30;99.90;;;;;;2074094;28;20293;-63
2020/12/19 00:30:19;;;;;;;4.27;3.10;;;1.30;99.90;;;;;;2089813;22;21564;-68
2020/12/19 00:31:23;;;;;;;4.47;3.33;;;1.40;99.90;;;;;;2082140;28;20663;-67
2020/12/19 00:32:24;;;;;;;4.53;3.30;;;1.40;99.90;;;;;;2081990;28;20652;-65
2020/12/19 00:33:25;;;;;;;4.57;3.07;;;1.40;99.90;;;;;;2082352;28;20224;-69
2020/12/19 00:34:25;;;;;;;4.43;2.93;;;1.50;99.90;;;;;;2082322;28;20675;-67
2020/12/19 00:35:26;;;;;;;6.10;3.30;;;1.50;99.90;;;;;;2082478;28;20235;-67
2020/12/19 00:36:27;;;;;;;4.73;3.57;;;1.50;99.90;;;;;;2082364;28;20180;-67
2020/12/19 00:37:28;;;;;;;4.50;3.33;;;1.50;99.90;;;;;;2082430;28;20184;-67
2020/12/19 00:38:29;;;;;;;3.70;2.93;;;1.60;99.90;;;;;;2082158;28;20177;-67
2020/12/19 00:39:29;;;;;;;4.03;2.83;;;1.60;99.90;;;;;;2082117;28;20180;-67
2020/12/19 00:40:30;;;;;;;4.60;3.30;;;1.60;99.90;;;;;;2081617;28;20197;-67
2020/12/19 00:41:31;;;;;;;4.47;3.40;;;1.60;99.90;;;;;;2081816;28;20255;-67
2020/12/19 00:42:36;;;;;;;4.73;3.13;;;1.70;99.90;;;;;;2081954;28;20173;-67
2020/12/19 00:43:37;;;;;;;5.47;3.08;;;1.70;99.90;;;;;;2082282;28;20625;-67
2020/12/19 00:44:38;;;;;;;6.63;3.77;;;1.70;99.90;;;;;;2082097;28;20185;-67
2020/12/19 00:45:38;;;;;;;5.17;3.40;;;1.70;99.90;;;;;;2082299;28;20629;-67
2020/12/19 00:46:39;;;;;;;6.07;3.40;;;1.80;99.90;;;;;;2082124;28;20241;-67
2020/12/19 00:47:39;;;;;;;4.13;3.20;;;1.80;99.90;;;;;;2081905;28;20178;-68
2020/12/19 00:48:41;;;;;;;4.67;3.10;;;1.80;99.90;;;;;;2082044;28;20173;-67
2020/12/19 00:49:42;;;;;;;4.72;3.25;;;1.60;99.90;;;;;;2081685;28;20177;-67
2020/12/19 00:50:42;;;;;;;4.47;3.13;;;1.70;99.90;;;;;;2081267;28;20201;-68
2020/12/19 00:51:43;;;;;;;3.80;2.90;;;1.70;99.90;;;;;;2081202;28;20628;-68
2020/12/19 00:52:44;;;;;;;4.40;2.67;;;1.70;99.90;;;;;;2081623;28;20173;-67
2020/12/19 00:53:45;;;;;;;3.50;2.70;;;1.70;99.90;;;;;;2081967;28;20231;-67
2020/12/19 00:54:46;;;;;;;3.72;2.78;;;1.70;99.90;;;;;;2081564;28;20356;-69
2020/12/19 00:55:47;;;;;;;4.03;3.10;;;1.70;99.90;;;;;;2081439;28;20207;-69
2020/12/19 00:56:51;;;;;;;4.80;2.92;;;1.60;99.90;;;;;;2089831;28;20169;-66
2020/12/19 00:57:51;;;;;;;3.95;2.63;;;1.60;99.90;;;;;;2082199;28;20184;-67
2020/12/19 00:58:54;;;;;;;4.07;2.63;;;1.60;99.90;;;;;;2081624;28;20633;-67
2020/12/19 00:59:55;;;;;;;4.35;2.92;;;1.50;99.90;;;;;;2081390;28;20395;-67
2020/12/19 01:00:56;;;;;;;4.33;2.90;;;1.50;99.90;;;;;;2082096;28;20288;-67
2020/12/19 01:01:57;;;;;;;4.23;2.90;;;1.50;99.90;;;;;;2082057;28;20177;-67
2020/12/19 01:02:58;;;;;;;3.55;2.58;;;1.50;99.90;;;;;;2082246;28;20292;-67
2020/12/19 01:04:00;;;;;;;2.88;2.33;;;1.50;99.90;;;;;;2081771;28;20645;-68
2020/12/19 01:05:02;;;;;;;4.30;2.50;;;1.50;99.90;;;;;;2082496;28;20177;-67
2020/12/19 01:06:04;;;;;;;3.20;2.47;;;1.50;99.90;;;;;;2082193;28;20183;-68
2020/12/19 01:07:11;;;;;;;4.35;2.60;;;1.50;99.90;;;;;;2082553;28;20180;-67
2020/12/19 01:08:11;;;;;;;3.58;2.30;;;1.50;99.90;;;;;;2082273;28;20684;-68
2020/12/19 01:09:12;;;;;;;3.30;2.23;;;1.60;99.90;;;;;;2082401;28;20173;-67
2020/12/19 01:10:13;;;;;;;3.67;2.47;;;1.60;99.90;;;;;;2081455;28;20599;-67
2020/12/19 01:11:15;;;;;;;7.10;2.73;;;1.60;99.90;;;;;;2082085;28;20181;-67
2020/12/19 01:12:16;;;;;;;3.50;2.50;;;1.50;99.90;;;;;;2082240;28;20185;-67
2020/12/19 01:13:16;;;;;;;4.57;2.43;;;1.50;99.90;;;;;;2081663;28;20288;-67
2020/12/19 01:14:17;;;;;;;4.53;2.67;;;1.50;99.90;;;;;;2081585;28;20302;-67
2020/12/19 01:15:18;;;;;;;2.27;2.00;;;1.50;99.90;;;;;;2082768;28;20264;-67
2020/12/19 01:16:25;;;;;;;3.80;2.63;;;1.50;99.90;;;;;;2082072;28;20256;-67
2020/12/19 01:17:27;;;;;;;5.05;2.72;;;1.40;99.90;;;;;;2082342;28;20177;-67
2020/12/19 01:18:27;;;;;;;3.25;2.63;;;1.50;99.90;;;;;;2081459;28;20185;-67
2020/12/19 01:19:28;;;;;;;4.47;2.87;;;1.40;99.90;;;;;;2081729;28;20622;-67
2020/12/19 01:20:29;;;;;;;5.87;3.13;;;1.40;99.90;;;;;;2081609;28;20672;-68
2020/12/19 01:21:30;;;;;;;5.30;2.67;;;1.40;99.90;;;;;;2081653;28;20188;-67
2020/12/19 01:22:33;;;;;;;4.05;3.53;;;1.50;99.90;;;;;;2082268;28;20238;-67
2020/12/19 01:23:34;;;;;;;4.85;3.03;;;1.50;99.90;;;;;;2082492;28;20308;-67
2020/12/19 01:24:34;;;;;;;4.33;2.73;;;1.50;99.90;;;;;;2082213;28;20243;-67
2020/12/19 01:25:35;;;;;;;3.93;2.90;;;1.40;99.90;;;;;;2082189;28;20388;-67
2020/12/19 01:26:36;;;;;;;3.87;2.87;;;1.40;99.90;;;;;;2081940;28;20177;-66
2020/12/19 01:27:36;;;;;;;4.20;2.73;;;1.50;99.90;;;;;;2082447;28;20535;-67
2020/12/19 01:28:37;;;;;;;4.97;3.13;;;1.50;99.90;;;;;;2082072;28;20209;-67
2020/12/19 01:29:38;;;;;;;4.50;3.10;;;1.50;99.90;;;;;;2082093;28;20177;-68
2020/12/19 01:30:38;;;;;;;4.17;2.90;;;1.50;99.90;;;;;;2081788;28;20213;-68
2020/12/19 01:31:40;;;;;;;6.33;2.90;;;1.50;99.90;;;;;;2082031;28;20279;-67
2020/12/19 01:32:40;;;;;;;5.13;2.90;;;1.50;99.90;;;;;;2086323;28;20199;-67
2020/12/19 01:33:42;;;;;;;4.03;3.10;;;1.50;99.90;;;;;;2089541;28;20216;-67
2020/12/19 01:34:42;;;;;;;3.75;2.80;;;1.50;99.90;;;;;;2090335;28;20215;-67
2020/12/19 01:35:43;;;;;;;3.30;2.50;;;1.50;99.90;;;;;;2090395;28;20176;-67
2020/12/19 01:36:46;;;;;;;3.00;2.30;;;1.40;99.90;;;;;;2090060;28;20188;-67
2020/12/19 01:37:46;;;;;;;3.33;2.47;;;1.50;99.90;;;;;;2090163;28;20230;-67
2020/12/19 01:38:48;;;;;;;3.60;2.00;;;1.50;99.90;;;;;;2090003;28;20599;-67
2020/12/19 01:39:49;;;;;;;3.40;2.75;;;1.50;99.90;;;;;;2090219;28;20172;-67
2020/12/19 01:40:52;;;;;;;4.83;2.87;;;1.40;99.90;;;;;;2089956;28;20555;-66
2020/12/19 01:41:53;;;;;;;4.82;2.90;;;1.40;99.90;;;;;;2089463;28;20179;-67
2020/12/19 01:42:54;;;;;;;4.20;2.88;;;1.30;99.90;;;;;;2089469;28;20264;-68
2020/12/19 01:43:57;;;;;;;3.87;2.67;;;1.40;99.90;;;;;;2090389;28;20549;-67
2020/12/19 01:44:58;;;;;;;4.75;2.45;;;1.40;99.90;;;;;;2089495;28;20173;-67
2020/12/19 01:45:58;;;;;;;3.50;2.60;;;1.30;99.90;;;;;;2089783;28;20215;-67
2020/12/19 01:47:02;;;;;;;3.63;2.67;;;1.30;99.90;;;;;;2090071;28;20195;-67
2020/12/19 01:48:16;;;;;;;2.90;2.42;;;1.30;99.90;;;;;;2090078;28;20292;-67
2020/12/19 01:49:17;;;;;;;4.25;2.90;;;1.30;99.90;;;;;;2081136;28;20192;-67
2020/12/19 01:50:18;;;;;;;3.47;2.42;;;1.30;99.90;;;;;;2074508;28;20715;-68
2020/12/19 01:51:19;;;;;;;2.83;2.33;;;1.30;99.90;;;;;;2081060;28;20193;-69
2020/12/19 01:52:23;;;;;;;3.55;2.70;;;1.20;99.90;;;;;;2089485;28;20278;-69
2020/12/19 01:53:24;;;;;;;4.13;2.75;;;1.20;99.90;;;;;;2089798;28;20624;-67
2020/12/19 01:54:26;;;;;;;4.82;2.92;;;1.20;99.90;;;;;;2090112;28;20245;-67
2020/12/19 01:55:26;;;;;;;3.78;2.47;;;1.20;99.90;;;;;;2089968;28;20189;-68
2020/12/19 01:56:50;;;;;;;3.00;2.17;;;1.20;99.90;;;;;;2090065;28;20229;-67
2020/12/19 01:57:50;;;;;;;4.45;2.50;;;1.20;99.90;;;;;;2089888;28;20593;-67
2020/12/19 01:58:51;;;;;;;4.10;2.70;;;1.20;99.90;;;;;;2090117;28;20191;-67
2020/12/19 01:59:52;;;;;;;3.40;2.40;;;1.10;99.90;;;;;;2089853;28;20632;-67
2020/12/19 02:00:56;;;;;;;3.13;2.67;;;1.10;99.90;;;;;;2089762;28;20184;-67
2020/12/19 02:02:07;;;;;;;4.63;2.50;;;1.10;99.90;;;;;;2090147;28;20232;-67
2020/12/19 02:03:08;;;;;;;3.35;2.45;;;1.00;99.90;;;;;;2090053;28;20666;-67
2020/12/19 02:04:09;;;;;;;4.03;2.63;;;1.10;99.90;;;;;;2090287;28;20198;-68
2020/12/19 02:05:10;;;;;;;3.47;2.47;;;1.10;99.90;;;;;;2089432;28;20648;-67
2020/12/19 02:06:13;;;;;;;3.67;2.50;;;1.10;99.90;;;;;;2089068;28;20188;-67
2020/12/19 02:07:14;;;;;;;4.85;2.63;;;1.00;99.90;;;;;;2089888;28;20616;-69
2020/12/19 02:08:15;;;;;;;3.72;2.90;;;1.00;99.90;;;;;;2089023;28;20208;-67
2020/12/19 02:09:18;;;;;;;4.77;3.40;;;1.00;99.90;;;;;;2081015;28;20188;-67
2020/12/19 02:10:19;;;;;;;4.57;3.05;;;1.00;99.90;;;;;;2089058;28;20199;-68
2020/12/19 02:11:22;;;;;;;3.93;2.70;;;1.00;99.90;;;;;;2089616;28;20769;-69
2020/12/19 02:12:22;;;;;;;4.10;2.72;;;1.00;99.90;;;;;;2097363;28;20198;-67
2020/12/19 02:13:23;;;;;;;3.93;2.70;;;0.90;99.90;;;;;;2097486;28;20176;-69
2020/12/19 02:14:24;;;;;;;4.83;3.27;;;0.90;99.90;;;;;;2089942;28;20200;-67
2020/12/19 02:15:25;;;;;;;4.73;3.30;;;1.00;99.90;;;;;;2090181;28;20272;-67
2020/12/19 02:16:26;;;;;;;3.30;2.70;;;1.00;99.90;;;;;;2089997;28;20180;-67
2020/12/19 02:17:26;;;;;;;3.47;2.60;;;1.00;99.90;;;;;;2089969;28;20673;-67
2020/12/19 02:18:27;;;;;;;4.57;3.20;;;0.90;99.90;;;;;;2089962;28;20791;-68
2020/12/19 02:19:29;;;;;;;3.93;3.00;;;0.90;99.90;;;;;;2090081;28;20268;-67
2020/12/19 02:20:30;;;;;;;3.75;2.78;;;0.90;99.90;;;;;;2089437;28;20249;-67
2020/12/19 02:21:30;;;;;;;3.70;2.63;;;0.90;99.90;;;;;;2097438;28;20225;-67
2020/12/19 02:22:31;;;;;;;5.20;2.83;;;0.90;99.90;;;;;;2097628;28;20272;-67
2020/12/19 02:23:32;;;;;;;5.70;3.27;;;0.90;99.90;;;;;;2090110;28;20172;-67
2020/12/19 02:24:34;;;;;;;4.47;3.20;;;0.90;99.90;;;;;;2089684;28;20184;-68
2020/12/19 02:25:36;;;;;;;4.07;2.80;;;0.90;99.90;;;;;;2089718;28;20180;-67
2020/12/19 02:26:37;;;;;;;4.72;2.65;;;0.90;99.90;;;;;;2090019;28;20183;-67
2020/12/19 02:27:38;;;;;;;4.57;2.40;;;0.90;99.90;;;;;;2090169;28;20852;-67
2020/12/19 02:28:39;;;;;;;3.40;2.43;;;0.90;99.90;;;;;;2089793;28;20207;-67
2020/12/19 02:29:39;;;;;;;3.20;2.50;;;0.80;99.90;;;;;;2089868;28;20165;-67
2020/12/19 02:30:40;;;;;;;4.53;2.90;;;0.80;99.90;;;;;;2089850;28;20287;-67
2020/12/19 02:31:42;;;;;;;3.73;2.67;;;0.80;99.90;;;;;;2089901;28;20283;-67
2020/12/19 02:32:44;;;;;;;6.97;2.90;;;0.80;99.90;;;;;;2089744;28;20549;-67
2020/12/19 02:33:45;;;;;;;4.32;2.80;;;0.70;99.90;;;;;;2089712;28;20736;-67
2020/12/19 02:34:46;;;;;;;3.80;2.10;;;0.70;99.90;;;;;;2089789;28;20229;-67
2020/12/19 02:35:47;;;;;;;5.00;3.43;;;0.70;99.90;;;;;;2089647;28;20555;-67
2020/12/19 02:36:48;;;;;;;6.90;4.13;;;0.70;99.90;;;;;;2089654;28;20179;-67
2020/12/19 02:37:49;;;;;;;5.85;3.35;;;0.70;99.90;;;;;;2089665;28;20278;-67
2020/12/19 02:38:49;;;;;;;4.97;3.47;;;0.70;99.90;;;;;;2089548;28;20188;-67
2020/12/19 02:39:50;;;;;;;4.53;3.17;;;0.70;99.90;;;;;;2089426;28;20218;-68
2020/12/19 02:40:51;;;;;;;4.00;2.97;;;0.70;99.90;;;;;;2089335;28;20206;-67
2020/12/19 02:41:51;;;;;;;3.80;2.87;;;0.70;99.90;;;;;;2089277;28;20649;-67
2020/12/19 02:42:52;;;;;;;5.33;3.00;;;0.70;99.90;;;;;;2089583;28;20788;-67
2020/12/19 02:43:56;;;;;;;4.63;2.90;;;0.70;99.90;;;;;;2089459;28;20188;-67
2020/12/19 02:44:57;;;;;;;3.80;2.75;;;0.60;99.90;;;;;;2089031;28;20188;-67
2020/12/19 02:45:59;;;;;;;7.07;3.03;;;0.60;99.90;;;;;;2088972;28;20664;-67
2020/12/19 02:47:00;;;;;;;5.22;2.88;;;0.60;99.90;;;;;;2089624;28;20180;-67
2020/12/19 02:48:01;;;;;;;5.13;3.40;;;0.60;99.90;;;;;;2089471;28;20191;-67
2020/12/19 02:49:03;;;;;;;3.57;3.13;;;0.60;99.90;;;;;;2089726;28;20555;-67
2020/12/19 02:50:05;;;;;;;5.40;3.03;;;0.60;99.90;;;;;;2088823;28;20213;-67
2020/12/19 02:51:07;;;;;;;4.75;2.95;;;0.60;99.90;;;;;;2088834;28;20184;-67
2020/12/19 02:52:07;;;;;;;5.93;3.47;;;0.60;99.90;;;;;;2089406;28;20262;-68
2020/12/19 02:53:08;;;;;;;5.10;3.33;;;0.60;99.90;;;;;;2089541;28;20188;-67
2020/12/19 02:54:09;;;;;;;5.10;3.83;;;0.50;99.90;;;;;;2089447;28;20180;-68
2020/12/19 02:55:09;;;;;;;4.17;3.20;;;0.50;99.90;;;;;;2089552;28;20183;-67
2020/12/19 02:56:10;;;;;;;5.73;3.70;;;0.60;99.90;;;;;;2089366;28;20212;-68
2020/12/19 02:57:11;;;;;;;5.57;3.77;;;0.60;99.90;;;;;;2089536;28;20203;-67
2020/12/19 02:58:11;;;;;;;7.17;3.17;;;0.60;99.90;;;;;;2089576;28;20310;-68
2020/12/19 02:59:12;;;;;;;4.30;2.90;;;0.60;99.90;;;;;;2089889;28;20628;-68
2020/12/19 03:00:13;;;;;;;3.83;2.93;;;0.60;99.90;;;;;;2089731;28;20203;-67
2020/12/19 03:01:14;;;;;;;6.93;3.73;;;0.60;99.90;;;;;;2089540;28;20207;-67
2020/12/19 03:02:15;;;;;;;6.63;3.33;;;0.60;99.90;;;;;;2089766;28;20258;-68
2020/12/19 03:03:15;;;;;;;3.67;3.05;;;0.50;99.90;;;;;;2089676;28;20663;-67
2020/12/19 03:04:16;;;;;;;5.43;3.10;;;0.50;99.90;;;;;;2089499;28;20191;-67
2020/12/19 03:05:17;;;;;;;3.57;2.73;;;0.50;99.90;;;;;;2089757;28;20183;-67
2020/12/19 03:06:17;;;;;;;3.90;2.73;;;0.40;99.90;;;;;;2089410;28;20181;-67
2020/12/19 03:07:18;;;;;;;4.87;2.97;;;0.40;99.90;;;;;;2089597;28;20187;-67
2020/12/19 03:08:19;;;;;;;4.23;3.00;;;0.40;99.90;;;;;;2089414;28;20214;-67
2020/12/19 03:09:20;;;;;;;5.93;2.73;;;0.40;99.90;;;;;;2089264;28;20226;-69
2020/12/19 03:10:21;;;;;;;5.65;2.50;;;0.30;99.90;;;;;;2089188;28;20326;-67
2020/12/19 03:11:22;;;;;;;4.13;2.00;;;0.30;99.90;;;;;;2089136;28;20179;-67
2020/12/19 03:12:22;;;;;;;3.43;2.50;;;0.30;99.90;;;;;;2088772;28;20176;-67
2020/12/19 03:13:23;;;;;;;4.93;2.83;;;0.30;99.90;;;;;;2080448;28;20551;-67
2020/12/19 03:14:24;;;;;;;5.60;2.93;;;0.40;99.90;;;;;;2088648;28;20226;-67
2020/12/19 03:15:24;;;;;;;3.90;2.17;;;0.40;99.90;;;;;;2089340;28;20275;-68
2020/12/19 03:16:25;;;;;;;2.80;1.93;;;0.40;99.90;;;;;;2097154;28;20662;-67
2020/12/19 03:17:26;;;;;;;5.17;2.80;;;0.40;99.90;;;;;;2097142;28;20237;-66
2020/12/19 03:18:26;;;;;;;4.37;2.50;;;0.40;99.90;;;;;;2089380;28;20198;-67
2020/12/19 03:19:27;;;;;;;5.27;2.37;;;0.40;99.90;;;;;;2089383;28;20183;-67
2020/12/19 03:20:28;;;;;;;2.97;2.20;;;0.40;99.90;;;;;;2089150;28;20622;-67
2020/12/19 03:21:28;;;;;;;3.37;2.33;;;0.30;99.90;;;;;;2088987;28;20180;-66
2020/12/19 03:22:29;;;;;;;3.97;2.50;;;0.30;99.90;;;;;;2090873;28;20183;-67
2020/12/19 03:23:30;;;;;;;2.10;1.90;;;0.30;99.90;;;;;;2091936;28;20423;-67
2020/12/19 03:24:30;;;;;;;5.47;2.47;;;0.30;99.90;;;;;;2092203;28;20624;-66
2020/12/19 03:25:31;;;;;;;2.80;1.90;;;0.20;99.90;;;;;;2091985;28;20186;-67
2020/12/19 03:26:32;;;;;;;3.73;2.30;;;0.20;99.90;;;;;;2092262;28;20687;-67
2020/12/19 03:27:33;;;;;;;3.45;2.38;;;0.20;99.90;;;;;;2092094;28;20207;-66
2020/12/19 03:28:33;;;;;;;3.93;2.33;;;0.30;99.90;;;;;;2092093;28;20223;-67
2020/12/19 03:29:34;;;;;;;2.23;1.93;;;0.20;99.90;;;;;;2092058;28;20228;-66
2020/12/19 03:30:35;;;;;;;2.50;1.87;;;0.20;99.90;;;;;;2091756;28;20207;-66
2020/12/19 03:31:36;;;;;;;2.17;1.73;;;0.20;99.90;;;;;;2091975;28;20184;-67
2020/12/19 03:32:37;;;;;;;3.37;1.87;;;0.20;99.90;;;;;;2092180;28;20200;-67
2020/12/19 03:33:38;;;;;;;4.63;1.90;;;0.20;99.90;;;;;;2091945;28;20172;-67
2020/12/19 03:34:38;;;;;;;2.63;2.00;;;0.20;99.90;;;;;;2092097;28;20553;-67
2020/12/19 03:35:40;;;;;;;3.70;1.80;;;0.20;99.90;;;;;;2092098;28;20210;-67
2020/12/19 03:36:40;;;;;;;2.70;1.75;;;0.20;99.90;;;;;;2091882;28;20187;-67
2020/12/19 03:37:41;;;;;;;1.77;1.57;;;0.20;99.90;;;;;;2091950;28;20266;-66
2020/12/19 03:38:42;;;;;;;3.57;1.77;;;0.10;99.90;;;;;;2092180;28;20200;-67
2020/12/19 03:39:43;;;;;;;2.38;1.90;;;0.10;99.90;;;;;;2088566;28;20202;-67
2020/12/19 03:40:44;;;;;;;4.70;2.10;;;0.10;99.90;;;;;;2091844;28;20215;-67
2020/12/19 03:41:44;;;;;;;2.73;1.80;;;0.20;99.90;;;;;;2091663;28;20240;-66
2020/12/19 03:42:45;;;;;;;4.20;2.30;;;0.20;99.90;;;;;;2092075;28;20597;-66
2020/12/19 03:43:46;;;;;;;3.90;2.10;;;0.20;99.90;;;;;;2091967;28;20179;-66
2020/12/19 03:44:46;;;;;;;2.30;1.80;;;0.20;99.90;;;;;;2084295;28;20196;-66
2020/12/19 03:45:47;;;;;;;4.00;2.23;;;0.20;99.90;;;;;;2083596;28;20685;-67
2020/12/19 03:46:48;;;;;;;1.97;1.73;;;0.20;99.90;;;;;;2083614;28;20180;-66
2020/12/19 03:47:48;;;;;;;3.57;2.00;;;0.20;99.90;;;;;;2083759;28;20219;-67
2020/12/19 03:48:49;;;;;;;3.57;2.07;;;0.30;99.90;;;;;;2083678;28;20180;-67
2020/12/19 03:49:50;;;;;;;2.63;2.00;;;0.30;99.90;;;;;;2083667;28;20209;-66
2020/12/19 03:50:51;;;;;;;2.97;2.23;;;0.30;99.90;;;;;;2083432;28;20179;-66
2020/12/19 03:51:52;;;;;;;3.65;2.25;;;0.30;99.90;;;;;;2083831;28;20192;-67
2020/12/19 03:52:53;;;;;;;4.93;2.20;;;0.30;99.90;;;;;;2083587;28;20275;-67
2020/12/19 03:53:53;;;;;;;2.13;1.50;;;0.30;99.90;;;;;;2083673;28;20184;-67
2020/12/19 03:54:54;;;;;;;2.50;1.70;;;0.30;99.90;;;;;;2083620;28;20191;-67
2020/12/19 03:55:55;;;;;;;2.60;1.77;;;0.30;99.90;;;;;;2083917;28;20224;-66
2020/12/19 03:56:56;;;;;;;3.15;1.98;;;0.30;99.90;;;;;;2083762;28;20226;-67
2020/12/19 03:57:56;;;;;;;3.07;1.63;;;0.30;99.90;;;;;;2083764;28;20237;-67
2020/12/19 03:58:57;;;;;;;2.17;1.60;;;0.30;99.90;;;;;;2083052;28;20736;-66
2020/12/19 03:59:58;;;;;;;3.47;1.53;;;0.40;99.90;;;;;;2083104;28;20180;-66
2020/12/19 04:00:58;;;;;;;2.40;1.90;;;0.40;99.90;;;;;;2083482;28;20176;-69
2020/12/19 04:01:59;;;;;;;2.53;1.77;;;0.30;99.90;;;;;;2083813;28;20184;-67
2020/12/19 04:03:00;;;;;;;3.47;2.00;;;0.30;99.90;;;;;;2083545;28;20542;-67
2020/12/19 04:04:00;;;;;;;3.93;2.40;;;0.30;99.90;;;;;;2083811;28;20203;-67
2020/12/19 04:05:02;;;;;;;2.10;1.70;;;0.30;99.90;;;;;;2083718;28;20181;-66
2020/12/19 04:06:03;;;;;;;2.70;1.80;;;0.30;99.90;;;;;;2083060;28;20260;-67
2020/12/19 04:07:04;;;;;;;2.50;1.60;;;0.30;99.90;;;;;;2074989;28;20254;-67
2020/12/19 04:08:04;;;;;;;1.80;1.43;;;0.20;99.90;;;;;;2083052;28;20180;-66
2020/12/19 04:09:05;;;;;;;2.70;1.97;;;0.20;99.90;;;;;;2083642;28;20423;-66
2020/12/19 04:10:08;;;;;;;3.03;1.97;;;0.20;99.90;;;;;;2083540;28;20663;-65
2020/12/19 04:11:09;;;;;;;3.10;1.73;;;0.20;99.90;;;;;;2083066;28;20490;-66
2020/12/19 04:12:09;;;;;;;2.43;1.70;;;0.30;99.90;;;;;;2082965;28;20188;-66
2020/12/19 04:13:10;;;;;;;4.73;1.90;;;0.30;99.90;;;;;;2083732;28;20183;-66
2020/12/19 04:14:11;;;;;;;5.37;1.97;;;0.30;99.90;;;;;;2083508;28;20180;-66
2020/12/19 04:15:12;;;;;;;2.37;1.73;;;0.30;99.90;;;;;;2083708;28;20271;-67
2020/12/19 04:16:13;;;;;;;1.90;1.50;;;0.30;99.90;;;;;;2083572;28;20695;-67
2020/12/19 04:17:13;;;;;;;3.60;1.80;;;0.30;99.90;;;;;;2083655;28;20189;-66
2020/12/19 04:18:14;;;;;;;2.57;1.73;;;0.30;99.90;;;;;;2083705;28;20207;-66
2020/12/19 04:19:15;;;;;;;3.17;2.03;;;0.30;99.90;;;;;;2083579;28;20275;-66
2020/12/19 04:20:15;;;;;;;2.13;1.57;;;0.20;99.90;;;;;;2082808;28;20204;-67
2020/12/19 04:21:16;;;;;;;3.20;1.70;;;0.20;99.90;;;;;;2082836;28;20192;-67
2020/12/19 04:22:17;;;;;;;2.10;1.50;;;0.20;99.90;;;;;;2083684;28;20242;-66
2020/12/19 04:23:18;;;;;;;2.10;1.70;;;0.20;99.90;;;;;;2083591;28;20180;-67
2020/12/19 04:24:18;;;;;;;2.53;1.70;;;0.20;99.90;;;;;;2083001;28;20275;-68
2020/12/19 04:25:19;;;;;;;3.70;1.70;;;0.20;99.90;;;;;;2082947;28;20430;-66
2020/12/19 04:26:20;;;;;;;2.80;1.50;;;0.20;99.90;;;;;;2083450;28;20183;-67
2020/12/19 04:27:21;;;;;;;2.40;1.60;;;0.20;99.90;;;;;;2083660;28;20184;-67
2020/12/19 04:28:21;;;;;;;2.20;1.60;;;0.20;99.90;;;;;;2083527;28;20814;-67
2020/12/19 04:29:22;;;;;;;2.07;1.60;;;0.30;99.90;;;;;;2083641;28;20610;-67
2020/12/19 04:30:23;;;;;;;3.13;1.60;;;0.30;99.90;;;;;;2083225;28;20211;-66
2020/12/19 04:31:24;;;;;;;1.60;1.30;;;0.30;99.90;;;;;;2083631;28;20189;-67
2020/12/19 04:32:24;;;;;;;1.70;1.30;;;0.30;99.90;;;;;;2083697;28;20168;-66
2020/12/19 04:33:25;;;;;;;2.60;1.83;;;0.20;99.90;;;;;;2083787;28;20186;-67
2020/12/19 04:34:27;;;;;;;1.70;1.30;;;0.30;99.90;;;;;;2082337;28;20271;-67
2020/12/19 04:35:27;;;;;;;2.03;1.52;;;0.30;99.90;;;;;;2082148;28;20184;-67
2020/12/19 04:36:28;;;;;;;2.30;1.40;;;0.20;99.90;;;;;;2082277;28;20226;-67
2020/12/19 04:37:29;;;;;;;2.70;1.73;;;0.20;99.90;;;;;;2082366;28;20187;-68
2020/12/19 04:38:30;;;;;;;2.60;1.80;;;0.20;99.90;;;;;;2082244;28;20180;-67
2020/12/19 04:39:31;;;;;;;2.13;1.55;;;0.20;99.90;;;;;;2082474;28;20218;-67
2020/12/19 04:40:32;;;;;;;2.70;1.33;;;0.20;99.90;;;;;;2082361;28;20212;-66
2020/12/19 04:41:35;;;;;;;1.90;1.57;;;0.20;99.90;;;;;;2082126;28;20226;-67
2020/12/19 04:42:36;;;;;;;3.25;1.52;;;0.20;99.90;;;;;;2082255;28;20462;-67
2020/12/19 04:43:37;;;;;;;2.20;1.47;;;0.20;99.90;;;;;;2082513;28;20188;-67
2020/12/19 04:44:38;;;;;;;3.13;1.73;;;0.20;99.90;;;;;;2081662;28;20181;-67
2020/12/19 04:45:38;;;;;;;2.10;1.67;;;0.20;99.90;;;;;;2073344;28;20173;-67
2020/12/19 04:46:41;;;;;;;2.87;1.60;;;0.20;99.90;;;;;;2081470;28;20573;-67
2020/12/19 04:47:42;;;;;;;1.92;1.33;;;0.20;99.90;;;;;;2089625;28;20689;-66
2020/12/19 04:48:44;;;;;;;3.47;2.27;;;0.20;99.90;;;;;;2081980;28;20227;-67
2020/12/19 04:49:46;;;;;;;4.00;2.60;;;0.20;99.90;;;;;;2081367;28;20180;-67
2020/12/19 04:50:47;;;;;;;3.50;1.80;;;0.20;99.90;;;;;;2081201;28;20203;-66
2020/12/19 04:51:47;;;;;;;3.42;2.00;;;0.20;99.90;;;;;;2081552;28;20215;-67
2020/12/19 04:52:48;;;;;;;2.37;1.70;;;0.30;99.90;;;;;;2081941;28;20587;-67
2020/12/19 04:53:49;;;;;;;3.33;2.20;;;0.30;99.90;;;;;;2081843;28;20180;-67
2020/12/19 04:54:51;;;;;;;2.40;1.60;;;0.30;99.90;;;;;;2081855;28;20185;-66
2020/12/19 04:55:51;;;;;;;3.05;1.80;;;0.30;99.90;;;;;;2081224;28;20676;-67
2020/12/19 04:56:55;;;;;;;2.20;1.70;;;0.30;99.90;;;;;;2081449;28;20188;-67
2020/12/19 04:57:57;;;;;;;6.10;1.60;;;0.30;99.90;;;;;;2081674;28;20176;-67
2020/12/19 04:59:01;;;;;;;2.42;1.42;;;0.20;99.90;;;;;;2081866;28;20183;-67
2020/12/19 05:00:05;;;;;;;3.25;1.60;;;0.20;99.90;;;;;;2081021;28;20212;-67
2020/12/19 05:01:05;;;;;;;2.42;1.60;;;0.20;99.90;;;;;;2081066;28;20181;-67
2020/12/19 05:02:06;;;;;;;2.33;1.50;;;0.20;99.90;;;;;;2081722;28;20638;-66
2020/12/19 05:03:07;;;;;;;2.40;1.70;;;0.20;99.90;;;;;;2081751;28;20187;-67
2020/12/19 05:04:13;;;;;;;2.30;1.60;;;0.20;99.90;;;;;;2081093;28;20187;-66
2020/12/19 05:05:14;;;;;;;3.75;1.27;;;0.30;99.90;;;;;;2081275;28;20173;-66
2020/12/19 05:06:26;;;;;;;1.67;1.30;;;0.20;99.90;;;;;;2081171;28;20223;-67
2020/12/19 05:07:27;;;;;;;2.08;1.27;;;0.20;99.90;;;;;;2081269;28;20169;-67
2020/12/19 05:08:28;;;;;;;5.60;1.67;;;0.20;99.90;;;;;;2080923;28;20716;-67
2020/12/19 05:09:29;;;;;;;2.17;1.48;;;0.20;99.90;;;;;;2081791;28;20196;-66
2020/12/19 05:10:29;;;;;;;1.50;1.20;;;0.20;99.90;;;;;;2081583;28;20201;-67
2020/12/19 05:11:30;;;;;;;1.50;1.07;;;0.20;99.90;;;;;;2081530;28;20175;-67
2020/12/19 05:12:32;;;;;;;1.90;1.40;;;0.20;99.90;;;;;;2081698;28;20172;-67
2020/12/19 05:13:32;;;;;;;1.23;1.13;;;0.20;99.90;;;;;;2081622;28;20179;-67
2020/12/19 05:14:34;;;;;;;1.33;1.07;;;0.10;99.90;;;;;;2081686;28;20188;-66
2020/12/19 05:15:35;;;;;;;1.83;1.40;;;0.10;99.90;;;;;;2081773;28;20179;-67
2020/12/19 05:16:35;;;;;;;2.13;1.20;;;0.20;99.90;;;;;;2081695;28;20177;-67
2020/12/19 05:17:36;;;;;;;1.20;1.10;;;0.10;99.90;;;;;;2081181;28;20184;-67
2020/12/19 05:18:38;;;;;;;3.07;1.20;;;0.20;99.90;;;;;;2080869;28;20667;-67
2020/12/19 05:19:39;;;;;;;2.55;1.20;;;0.20;99.90;;;;;;2081108;28;20180;-67
2020/12/19 05:20:40;;;;;;;2.10;1.20;;;0.20;99.90;;;;;;2080924;28;20711;-66
2020/12/19 05:21:45;;;;;;;2.17;1.30;;;0.20;99.90;;;;;;2080920;28;20640;-67
2020/12/19 05:22:51;;;;;;;1.58;1.10;;;0.20;99.90;;;;;;2081677;28;20195;-67
2020/12/19 05:23:52;;;;;;;2.25;1.13;;;0.30;99.90;;;;;;2081252;28;20188;-67